Terminal Aerodrome Forecast
Issued by NWS

Home | Current Version | Previous Version | Text Only | Print | Product List | Glossary Off
Versions: 1 2 3 4 5 6 7 8 9 10 11 12 13 14 15 16 17 18 19 20 21

671
FTUS43 KTOP 260520
TAFFOE
TAF
KFOE 260520Z 2606/2706 32006KT P6SM OVC007
     FM261600 29004KT P6SM OVC013
     FM261900 07006KT P6SM SCT040
     FM270230 03008KT 6SM -RA BR OVC013=

USA.gov is the U.S. government's official web portal to all federal, state and local government web resources and services.